createdAt,value
2023-05-09T00:01:13.267Z,56.25
2023-05-09T00:04:20.001Z,56.60
2023-05-09T00:07:28.464Z,55.90
2023-05-09T00:10:34.946Z,55.86
2023-05-09T00:13:42.132Z,56.50
2023-05-09T00:16:48.829Z,56.57
2023-05-09T00:19:55.744Z,55.71
2023-05-09T00:23:05.063Z,56.44
2023-05-09T00:26:10.644Z,56.52
2023-05-09T00:29:19.390Z,56.70
2023-05-09T00:32:25.980Z,56.33
2023-05-09T00:35:32.623Z,57.27
2023-05-09T00:38:41.065Z,56.32
2023-05-09T00:41:47.731Z,56.37
2023-05-09T00:44:53.584Z,56.48
2023-05-09T00:48:00.618Z,56.68
2023-05-09T00:51:06.524Z,56.84
2023-05-09T00:54:16.439Z,56.35
2023-05-09T00:57:22.188Z,57.29
2023-05-09T01:00:28.850Z,57.31
2023-05-09T01:03:35.843Z,57.36
2023-05-09T01:06:55.458Z,57.66
2023-05-09T01:10:14.885Z,57.62
2023-05-09T01:13:33.242Z,57.06
2023-05-09T01:16:50.487Z,57.71
2023-05-09T01:20:11.283Z,57.20
2023-05-09T01:23:56.566Z,56.95
2023-05-09T01:27:25.889Z,58.42
2023-05-09T01:30:41.077Z,58.68
2023-05-09T01:33:58.234Z,58.23
2023-05-09T01:37:08.850Z,58.73
2023-05-09T01:40:21.109Z,58.61
2023-05-09T01:43:34.144Z,58.15
2023-05-09T01:46:44.358Z,57.63
2023-05-09T01:49:53.147Z,58.59
2023-05-09T01:53:01.806Z,58.96
2023-05-09T01:56:12.627Z,58.31
2023-05-09T01:59:21.613Z,58.31
2023-05-09T02:02:32.522Z,57.92
2023-05-09T02:05:40.425Z,58.33
2023-05-09T02:08:48.072Z,58.20
2023-05-09T02:11:53.665Z,59.01
2023-05-09T02:15:00.694Z,58.64
2023-05-09T02:18:09.092Z,58.50
2023-05-09T02:21:16.181Z,57.83
2023-05-09T02:24:23.276Z,57.81
2023-05-09T02:27:31.822Z,57.90
2023-05-09T02:30:47.348Z,59.07
2023-05-09T02:33:59.030Z,59.29
2023-05-09T02:37:05.011Z,58.50
2023-05-09T02:40:14.699Z,59.38
2023-05-09T02:43:20.274Z,58.73
2023-05-09T02:46:26.754Z,59.95
2023-05-09T02:49:35.567Z,59.58
2023-05-09T02:52:43.993Z,59.20
2023-05-09T02:55:49.751Z,59.66
2023-05-09T02:58:56.146Z,59.85
2023-05-09T03:02:01.909Z,60.13
2023-05-09T03:05:13.421Z,59.61
2023-05-09T03:08:19.661Z,59.32
2023-05-09T03:11:26.349Z,59.79
2023-05-09T03:14:31.922Z,59.81
2023-05-09T03:17:39.192Z,60.91
2023-05-09T03:20:47.709Z,60.20
2023-05-09T03:23:54.324Z,59.82
2023-05-09T03:27:00.099Z,60.50
2023-05-09T03:30:08.044Z,59.94
2023-05-09T03:33:13.986Z,60.33
2023-05-09T03:36:23.932Z,60.04
2023-05-09T03:39:29.867Z,60.43
2023-05-09T03:42:36.977Z,60.72
2023-05-09T03:45:42.620Z,60.92
2023-05-09T03:48:50.792Z,60.09
2023-05-09T03:51:59.650Z,61.07
2023-05-09T03:55:07.573Z,60.81
2023-05-09T03:58:15.841Z,60.61
2023-05-09T04:01:23.582Z,60.88
2023-05-09T04:04:29.521Z,60.08
2023-05-09T04:07:39.380Z,59.46
2023-05-09T04:10:45.378Z,59.69
2023-05-09T04:13:53.361Z,59.75
2023-05-09T04:17:06.920Z,60.33
2023-05-09T04:20:15.437Z,59.77
2023-05-09T04:23:25.107Z,60.07
2023-05-09T04:26:33.154Z,60.04
2023-05-09T04:29:39.247Z,60.28
2023-05-09T04:32:47.323Z,59.71
2023-05-09T04:35:53.521Z,59.76
2023-05-09T04:39:03.360Z,59.29
2023-05-09T04:42:09.359Z,59.51
2023-05-09T04:45:16.275Z,59.24
2023-05-09T04:48:22.224Z,58.47
2023-05-09T04:51:29.637Z,59.05
2023-05-09T04:54:37.974Z,58.19
2023-05-09T04:57:45.893Z,58.01
2023-05-09T05:00:51.694Z,57.79
2023-05-09T05:03:58.522Z,57.66
2023-05-09T05:07:04.174Z,57.40
2023-05-09T05:10:14.964Z,56.80
2023-05-09T05:13:24.571Z,56.50
2023-05-09T05:16:35.605Z,55.71
2023-05-09T05:19:41.246Z,55.89
2023-05-09T05:22:48.842Z,55.60
2023-05-09T05:25:57.518Z,55.69
2023-05-09T05:29:04.721Z,55.33
2023-05-09T05:32:11.071Z,55.40
2023-05-09T05:35:17.729Z,54.82
2023-05-09T05:38:23.366Z,54.76
2023-05-09T05:41:36.464Z,55.21
2023-05-09T05:44:44.042Z,54.11
2023-05-09T05:47:52.168Z,54.42
2023-05-09T05:50:58.623Z,54.38
2023-05-09T05:54:08.925Z,54.04
2023-05-09T05:57:18.189Z,53.43
2023-05-09T06:00:24.932Z,53.63
2023-05-09T06:03:38.285Z,53.10
2023-05-09T06:06:46.517Z,52.85
2023-05-09T06:09:52.939Z,52.56
2023-05-09T06:13:02.490Z,52.43
2023-05-09T06:16:18.630Z,52.77
2023-05-09T06:19:28.898Z,52.35
2023-05-09T06:22:34.434Z,52.72
2023-05-09T06:25:40.999Z,51.67
2023-05-09T06:28:49.362Z,51.48
2023-05-09T06:31:55.963Z,51.00
2023-05-09T06:35:01.574Z,50.86
2023-05-09T06:38:08.518Z,50.93
2023-05-09T06:41:14.112Z,49.37
2023-05-09T06:44:23.975Z,48.99
2023-05-09T06:47:30.017Z,47.98
2023-05-09T06:50:36.485Z,47.27
2023-05-09T06:53:42.228Z,47.20
2023-05-09T06:56:49.029Z,46.79
2023-05-09T06:59:57.879Z,46.85
2023-05-09T07:03:04.720Z,46.42
2023-05-09T07:06:11.171Z,45.70
2023-05-09T07:09:19.746Z,46.31
2023-05-09T07:12:25.643Z,46.14
2023-05-09T07:15:41.847Z,44.62
2023-05-09T07:18:48.283Z,44.83
2023-05-09T07:21:54.667Z,44.94
2023-05-09T07:25:00.384Z,44.44
2023-05-09T07:28:06.894Z,43.93
2023-05-09T07:31:15.312Z,44.50
2023-05-09T07:34:21.810Z,43.28
2023-05-09T07:37:27.768Z,44.13
2023-05-09T07:40:37.117Z,43.38
2023-05-09T07:43:43.273Z,42.57
2023-05-09T07:46:52.499Z,42.01
2023-05-09T07:49:58.258Z,42.83
2023-05-09T07:53:04.734Z,42.47
2023-05-09T07:56:10.880Z,43.08
2023-05-09T07:59:17.440Z,43.15
2023-05-09T08:02:25.944Z,42.84
2023-05-09T08:05:32.652Z,41.79
2023-05-09T08:08:39.028Z,42.10
2023-05-09T08:11:46.093Z,42.39
2023-05-09T08:14:51.606Z,42.33
2023-05-09T08:18:00.928Z,41.19
2023-05-09T08:21:06.743Z,42.08
2023-05-09T08:24:13.370Z,41.41
2023-05-09T08:27:19.189Z,41.10
2023-05-09T08:30:25.725Z,41.22
2023-05-09T08:33:34.079Z,41.80
2023-05-09T08:36:41.298Z,41.50
2023-05-09T08:39:47.077Z,40.57
2023-05-09T08:42:55.023Z,41.46
2023-05-09T08:46:04.575Z,41.32
2023-05-09T08:49:15.235Z,41.57
2023-05-09T08:52:21.270Z,41.32
2023-05-09T08:55:29.555Z,41.48
2023-05-09T08:58:36.451Z,41.87
2023-05-09T09:01:44.212Z,41.69
2023-05-09T09:04:52.521Z,42.34
2023-05-09T09:08:01.491Z,42.34
2023-05-09T09:11:07.845Z,42.39
2023-05-09T09:14:21.946Z,42.31
2023-05-09T09:17:32.795Z,42.23
2023-05-09T09:21:02.439Z,42.61
2023-05-09T09:24:11.614Z,41.96
2023-05-09T09:27:18.009Z,41.88
2023-05-09T09:30:27.072Z,41.95
2023-05-09T09:33:33.918Z,41.64
2023-05-09T09:36:42.179Z,41.58
2023-05-09T09:39:58.182Z,41.60
2023-05-09T09:43:03.709Z,41.31
2023-05-09T09:46:10.170Z,41.33
2023-05-09T09:49:18.239Z,40.84
2023-05-09T09:52:29.162Z,40.21
2023-05-09T09:55:35.328Z,40.24
2023-05-09T09:58:42.508Z,40.05
2023-05-09T10:02:03.432Z,39.77
2023-05-09T10:05:13.029Z,39.63
2023-05-09T10:08:21.583Z,39.56
2023-05-09T10:11:27.935Z,39.81
2023-05-09T10:14:36.980Z,40.01
2023-05-09T10:17:44.122Z,40.00
2023-05-09T10:20:50.674Z,39.79
2023-05-09T10:24:00.896Z,39.33
2023-05-09T10:27:13.289Z,38.66
2023-05-09T10:30:25.631Z,38.23
2023-05-09T10:33:45.582Z,38.70
2023-05-09T10:36:53.243Z,38.79
2023-05-09T10:40:05.342Z,38.46
2023-05-09T10:43:11.858Z,38.25
2023-05-09T10:46:18.943Z,38.41
2023-05-09T10:49:27.007Z,37.68
2023-05-09T10:52:36.659Z,37.23
2023-05-09T10:55:55.706Z,37.36
2023-05-09T10:59:02.467Z,37.99
2023-05-09T11:02:14.598Z,37.49
2023-05-09T11:05:23.005Z,36.43
2023-05-09T11:08:33.493Z,36.41
2023-05-09T11:11:55.928Z,36.51
2023-05-09T11:15:11.011Z,36.65
2023-05-09T11:18:17.162Z,37.01
2023-05-09T11:21:24.798Z,36.60
2023-05-09T11:24:31.322Z,35.67
2023-05-09T11:27:48.864Z,35.89
2023-05-09T11:30:55.509Z,36.35
2023-05-09T11:34:06.715Z,36.28
2023-05-09T11:37:14.926Z,34.87
2023-05-09T11:40:23.556Z,35.35
2023-05-09T11:43:32.817Z,34.19
2023-05-09T11:46:40.405Z,34.39
2023-05-09T11:49:46.949Z,33.54
2023-05-09T11:52:54.333Z,33.94
2023-05-09T11:56:00.033Z,32.99
2023-05-09T11:59:13.410Z,33.38
2023-05-09T12:02:19.403Z,33.46
2023-05-09T12:05:26.929Z,33.83
2023-05-09T12:08:32.600Z,34.28
2023-05-09T12:11:39.912Z,34.78
2023-05-09T12:14:48.588Z,33.44
2023-05-09T12:18:06.304Z,33.72
2023-05-09T12:21:12.500Z,33.86
2023-05-09T12:24:24.073Z,34.26
2023-05-09T12:27:30.153Z,34.16
2023-05-09T12:30:39.521Z,34.94
2023-05-09T12:33:45.532Z,34.66
2023-05-09T12:36:52.318Z,33.63
2023-05-09T12:40:07.335Z,34.20
2023-05-09T12:43:14.262Z,33.67
2023-05-09T12:46:25.306Z,33.17
2023-05-09T12:49:33.153Z,33.53
2023-05-09T12:52:54.166Z,33.24
2023-05-09T12:56:15.985Z,33.33
2023-05-09T12:59:25.437Z,33.75
2023-05-09T13:02:38.975Z,34.12
2023-05-09T13:05:44.542Z,33.58
2023-05-09T13:09:02.578Z,33.78
2023-05-09T13:12:10.214Z,33.80
2023-05-09T13:15:17.819Z,33.02
2023-05-09T13:18:26.684Z,32.96
2023-05-09T13:21:33.052Z,33.20
2023-05-09T13:24:38.593Z,32.45
2023-05-09T13:27:44.984Z,32.95
2023-05-09T13:30:50.850Z,33.19
2023-05-09T13:34:00.015Z,33.55
2023-05-09T13:37:05.950Z,33.62
2023-05-09T13:40:14.111Z,33.75
2023-05-09T13:43:19.893Z,34.05
2023-05-09T13:46:26.393Z,33.53
2023-05-09T13:49:34.669Z,32.94
2023-05-09T13:52:41.024Z,33.08
2023-05-09T13:55:48.784Z,33.78
2023-05-09T13:58:55.242Z,32.87
2023-05-09T14:02:01.754Z,33.18
2023-05-09T14:05:12.275Z,33.21
2023-05-09T14:08:17.857Z,32.67
2023-05-09T14:11:25.683Z,32.25
2023-05-09T14:14:31.224Z,32.81
2023-05-09T14:17:37.660Z,33.08
2023-05-09T14:20:46.140Z,33.17
2023-05-09T14:23:52.686Z,33.12
2023-05-09T14:26:58.451Z,32.67
2023-05-09T14:30:04.860Z,32.73
2023-05-09T14:33:10.410Z,32.99
2023-05-09T14:36:19.590Z,32.32
2023-05-09T14:39:25.219Z,32.19
2023-05-09T14:42:31.763Z,32.00
2023-05-09T14:45:37.694Z,32.29
2023-05-09T14:48:44.108Z,32.10
2023-05-09T14:51:52.396Z,32.77
2023-05-09T14:55:00.024Z,31.54
2023-05-09T14:58:05.794Z,32.23
2023-05-09T15:01:12.436Z,31.64
2023-05-09T15:04:18.300Z,31.88
2023-05-09T15:07:27.846Z,31.77
2023-05-09T15:10:33.612Z,31.54
2023-05-09T15:13:40.209Z,31.78
2023-05-09T15:16:46.104Z,31.53
2023-05-09T15:19:52.571Z,31.70
2023-05-09T15:23:00.909Z,30.99
2023-05-09T15:26:09.148Z,30.45
2023-05-09T15:29:14.676Z,29.08
2023-05-09T15:32:21.294Z,28.42
2023-05-09T15:35:26.900Z,27.59
2023-05-09T15:38:36.053Z,26.64
2023-05-09T15:41:41.505Z,25.85
2023-05-09T15:44:48.796Z,25.64
2023-05-09T15:47:54.995Z,25.86
2023-05-09T15:51:02.803Z,25.06
2023-05-09T15:54:11.496Z,25.01
2023-05-09T15:57:18.468Z,24.89
2023-05-09T16:00:25.145Z,24.36
2023-05-09T16:03:32.132Z,24.14
2023-05-09T16:06:38.300Z,24.36
2023-05-09T16:09:47.636Z,23.31
2023-05-09T16:12:53.319Z,23.60
2023-05-09T16:16:00.107Z,23.35
2023-05-09T16:19:07.733Z,23.09
2023-05-09T16:22:14.352Z,22.94
2023-05-09T16:25:23.257Z,22.64
2023-05-09T16:28:30.383Z,23.06
2023-05-09T16:31:36.055Z,22.71
2023-05-09T16:34:42.665Z,23.06
2023-05-09T16:37:48.650Z,22.47
2023-05-09T16:40:58.720Z,23.12
2023-05-09T16:44:04.420Z,22.98
2023-05-09T16:47:11.099Z,23.33
2023-05-09T16:50:17.028Z,23.51
2023-05-09T16:53:24.491Z,23.97
2023-05-09T16:56:34.382Z,24.70
2023-05-09T16:59:40.926Z,24.95
2023-05-09T17:02:46.604Z,25.60
2023-05-09T17:05:53.380Z,25.94
2023-05-09T17:08:59.280Z,26.00
2023-05-09T17:12:15.022Z,27.01
2023-05-09T17:15:21.054Z,27.62
2023-05-09T17:18:36.711Z,28.16
2023-05-09T17:21:45.252Z,28.82
2023-05-09T17:24:52.073Z,29.03
2023-05-09T17:28:00.927Z,29.62
2023-05-09T17:31:08.320Z,29.67
2023-05-09T17:34:14.476Z,30.73
2023-05-09T17:37:21.172Z,30.35
2023-05-09T17:40:27.082Z,30.83
2023-05-09T17:43:38.078Z,31.30
2023-05-09T17:46:44.339Z,31.85
2023-05-09T17:49:52.402Z,31.61
2023-05-09T17:52:58.925Z,31.53
2023-05-09T17:56:05.640Z,31.52
2023-05-09T17:59:14.385Z,32.49
2023-05-09T18:02:24.329Z,32.00
2023-05-09T18:05:30.618Z,32.71
2023-05-09T18:08:37.334Z,32.88
2023-05-09T18:11:43.994Z,32.63
2023-05-09T18:14:55.880Z,32.84
2023-05-09T18:18:03.070Z,33.13
2023-05-09T18:21:10.420Z,33.62
2023-05-09T18:24:17.087Z,33.60
2023-05-09T18:27:24.224Z,33.93
2023-05-09T18:30:36.516Z,33.90
2023-05-09T18:33:46.342Z,34.03
2023-05-09T18:36:54.877Z,34.60
2023-05-09T18:40:01.636Z,34.77
2023-05-09T18:43:09.461Z,35.07
2023-05-09T18:46:21.528Z,34.96
2023-05-09T18:49:28.496Z,35.47
2023-05-09T18:52:35.305Z,35.23
2023-05-09T18:55:41.278Z,35.53
2023-05-09T18:58:49.254Z,35.84
2023-05-09T19:01:58.122Z,35.99
2023-05-09T19:05:07.532Z,35.79
2023-05-09T19:08:13.367Z,36.23
2023-05-09T19:11:20.120Z,36.48
2023-05-09T19:14:27.379Z,36.57
2023-05-09T19:17:38.210Z,36.72
2023-05-09T19:20:44.059Z,36.56
2023-05-09T19:23:50.951Z,37.07
2023-05-09T19:26:56.968Z,37.83
2023-05-09T19:30:05.913Z,37.75
2023-05-09T19:33:22.751Z,37.63
2023-05-09T19:36:29.513Z,37.97
2023-05-09T19:39:39.884Z,38.64
2023-05-09T19:42:47.692Z,37.93
2023-05-09T19:46:10.466Z,39.12
2023-05-09T19:49:36.517Z,39.41
2023-05-09T19:53:07.490Z,38.74
2023-05-09T19:56:14.267Z,39.59
2023-05-09T19:59:48.698Z,40.14
2023-05-09T20:03:00.020Z,39.81
2023-05-09T20:09:33.803Z,39.93
2023-05-09T20:12:40.909Z,40.32
2023-05-09T20:16:14.532Z,40.08
2023-05-09T20:19:28.959Z,40.06
2023-05-09T20:22:41.543Z,40.19
2023-05-09T20:25:47.337Z,40.28
2023-05-09T20:28:54.738Z,40.28
2023-05-09T20:32:00.627Z,40.85
2023-05-09T20:35:07.991Z,40.32
2023-05-09T20:38:16.646Z,40.71
2023-05-09T20:41:23.926Z,41.73
2023-05-09T20:44:29.675Z,41.59
2023-05-09T20:47:36.575Z,41.15
2023-05-09T20:50:42.836Z,41.07
2023-05-09T20:53:53.578Z,41.46
2023-05-09T20:56:59.218Z,40.89
2023-05-09T21:00:07.818Z,41.25
2023-05-09T21:03:13.549Z,41.34
2023-05-09T21:06:20.148Z,41.37
2023-05-09T21:09:29.026Z,41.42
2023-05-09T21:12:35.605Z,42.12
2023-05-09T21:15:41.174Z,42.34
2023-05-09T21:18:47.731Z,41.51
2023-05-09T21:21:53.620Z,42.49
2023-05-09T21:25:03.340Z,41.76
2023-05-09T21:28:09.398Z,41.61
2023-05-09T21:31:15.817Z,42.38
2023-05-09T21:34:21.753Z,42.03
2023-05-09T21:37:28.155Z,41.89
2023-05-09T21:40:36.460Z,42.54
2023-05-09T21:43:42.902Z,42.22
2023-05-09T21:46:49.014Z,42.61
2023-05-09T21:49:55.546Z,42.56
2023-05-09T21:53:01.812Z,42.31
2023-05-09T21:56:11.541Z,42.31
2023-05-09T21:59:18.005Z,42.40
2023-05-09T22:02:24.417Z,43.18
2023-05-09T22:05:30.135Z,42.46
2023-05-09T22:08:36.568Z,43.22
2023-05-09T22:11:44.846Z,42.32
2023-05-09T22:14:56.229Z,43.22
2023-05-09T22:18:03.151Z,42.56
2023-05-09T22:21:09.647Z,43.48
2023-05-09T22:24:15.952Z,43.04
2023-05-09T22:27:25.085Z,42.72
2023-05-09T22:30:31.027Z,43.85
2023-05-09T22:33:37.644Z,43.95
2023-05-09T22:36:43.107Z,43.88
2023-05-09T22:39:49.536Z,43.18
2023-05-09T22:42:58.116Z,44.08
2023-05-09T22:46:04.792Z,44.30
2023-05-09T22:49:10.428Z,43.56
2023-05-09T22:52:17.395Z,44.35
2023-05-09T22:55:23.088Z,43.68
2023-05-09T22:58:32.436Z,43.70
2023-05-09T23:01:38.166Z,44.96
2023-05-09T23:04:44.681Z,44.84
2023-05-09T23:07:51.019Z,44.71
2023-05-09T23:10:57.911Z,45.33
2023-05-09T23:14:06.910Z,45.48
2023-05-09T23:17:13.265Z,45.34
2023-05-09T23:20:19.281Z,44.72
2023-05-09T23:23:25.714Z,45.50
2023-05-09T23:26:31.407Z,45.09
2023-05-09T23:29:40.583Z,45.96
2023-05-09T23:32:46.375Z,45.08
2023-05-09T23:35:52.827Z,46.02
2023-05-09T23:38:58.364Z,46.30
2023-05-09T23:42:04.733Z,46.02
2023-05-09T23:45:14.238Z,45.57
2023-05-09T23:48:20.629Z,46.13
2023-05-09T23:51:26.446Z,46.00
2023-05-09T23:54:32.879Z,46.18
2023-05-09T23:57:38.670Z,47.02
